Terminal Aerodrome Forecast
Issued by NWS

Home | Current Version | Previous Version | Text Only | Print | Product List | Glossary On
Versions: 1 2 3 4 5 6 7 8 9 10 11 12 13 14 15 16 17 18 19 20 21 22 23
000
FTUS45 KRIW 241914 AAA
TAFJAC
TAF AMD
KJAC 241914Z 2419/2518 03010KT 3SM -SN SCT015 OVC020
      TEMPO 2419/2422 3SM -SN OVC015
     FM242200 VRB04KT 4SM -SN SCT008 OVC013
     FM250200 01007KT 6SM -SN SCT013 OVC020
     FM250800 VRB04KT P6SM VCSH BKN020 OVC100
     FM251400 VRB03KT P6SM VCFG SCT100
      AMD LTD TO CLD VIS AND WIND=

USA.gov is the U.S. government's official web portal to all federal, state and local government web resources and services.